createdAt,value
2019-02-17T00:00:44.781Z,97.50
2019-02-17T00:03:15.245Z,97.60
2019-02-17T00:05:45.582Z,97.10
2019-02-17T00:08:16.053Z,97.80
2019-02-17T00:10:46.382Z,97.60
2019-02-17T00:13:16.745Z,97.70
2019-02-17T00:15:47.114Z,96.40
2019-02-17T00:18:17.658Z,97.40
2019-02-17T00:20:49.992Z,97.30
2019-02-17T00:23:20.509Z,97.20
2019-02-17T00:25:51.173Z,97.60
2019-02-17T00:28:22.621Z,97.60
2019-02-17T00:30:52.949Z,98.20
2019-02-17T00:33:23.322Z,97.90
2019-02-17T00:35:53.661Z,97.60
2019-02-17T00:38:24.026Z,97.40
2019-02-17T00:40:54.741Z,98.20
2019-02-17T00:43:25.098Z,97.90
2019-02-17T00:45:55.442Z,97.80
2019-02-17T00:48:25.850Z,97.30
2019-02-17T00:50:56.521Z,97.10
2019-02-17T00:53:26.910Z,98.00
2019-02-17T00:55:57.617Z,98.00
2019-02-17T00:58:29.397Z,98.10
2019-02-17T01:00:59.741Z,97.00
2019-02-17T01:03:30.117Z,97.80
2019-02-17T01:06:00.457Z,98.20
2019-02-17T01:08:30.817Z,98.20
2019-02-17T01:11:01.193Z,98.80
2019-02-17T01:13:31.525Z,98.00
2019-02-17T01:16:01.907Z,97.60
2019-02-17T01:18:32.245Z,98.50
2019-02-17T01:21:02.601Z,98.80
2019-02-17T01:23:33.077Z,98.50
2019-02-17T01:26:03.788Z,98.40
2019-02-17T01:28:34.145Z,98.70
2019-02-17T01:31:04.614Z,97.60
2019-02-17T01:33:34.962Z,98.00
2019-02-17T01:36:05.400Z,97.50
2019-02-17T01:38:35.738Z,97.40
2019-02-17T01:41:06.197Z,97.20
2019-02-17T01:43:36.525Z,97.10
2019-02-17T01:46:06.903Z,98.50
2019-02-17T01:48:37.276Z,98.70
2019-02-17T01:51:07.625Z,98.40
2019-02-17T01:53:37.986Z,98.20
2019-02-17T01:56:08.332Z,98.20
2019-02-17T01:58:38.693Z,98.90
2019-02-17T02:01:09.034Z,98.10
2019-02-17T02:03:39.397Z,98.60
2019-02-17T02:06:10.801Z,98.70
2019-02-17T02:08:43.761Z,98.50
2019-02-17T02:11:14.095Z,98.40
2019-02-17T02:13:44.545Z,98.30
2019-02-17T02:16:14.865Z,98.00
2019-02-17T02:18:45.266Z,97.30
2019-02-17T02:21:15.605Z,97.80
2019-02-17T02:23:46.117Z,98.30
2019-02-17T02:26:16.457Z,98.20
2019-02-17T02:28:46.977Z,97.40
2019-02-17T02:31:17.315Z,97.40
2019-02-17T02:33:47.664Z,98.00
2019-02-17T02:36:18.026Z,98.50
2019-02-17T02:38:48.393Z,98.60
2019-02-17T02:41:18.756Z,98.60
2019-02-17T02:43:49.081Z,98.60
2019-02-17T02:46:19.437Z,98.70
2019-02-17T02:48:49.794Z,98.70
2019-02-17T02:51:20.161Z,98.10
2019-02-17T02:53:50.493Z,97.80
2019-02-17T02:56:20.847Z,98.20
2019-02-17T02:58:51.190Z,97.80
2019-02-17T03:01:21.561Z,98.20
2019-02-17T03:03:51.885Z,99.00
2019-02-17T03:06:31.621Z,98.70
2019-02-17T03:09:01.959Z,98.90
2019-02-17T03:11:33.507Z,99.50
2019-02-17T03:14:03.851Z,98.70
2019-02-17T03:16:34.317Z,99.00
2019-02-17T03:19:04.655Z,98.50
2019-02-17T03:21:35.032Z,99.30
2019-02-17T03:24:05.518Z,99.20
2019-02-17T03:26:35.891Z,99.10
2019-02-17T03:29:06.226Z,99.30
2019-02-17T03:31:43.978Z,98.80
2019-02-17T03:34:14.325Z,98.20
2019-02-17T03:36:44.691Z,98.70
2019-02-17T03:39:15.044Z,99.30
2019-02-17T03:41:45.421Z,99.70
2019-02-17T03:44:15.761Z,99.70
2019-02-17T03:46:46.221Z,98.50
2019-02-17T03:49:16.574Z,99.20
2019-02-17T03:51:46.942Z,99.40
2019-02-17T03:54:17.281Z,99.10
2019-02-17T03:56:47.622Z,99.20
2019-02-17T03:59:18.002Z,99.20
2019-02-17T04:01:48.341Z,99.30
2019-02-17T04:04:18.705Z,99.20
2019-02-17T04:06:49.037Z,99.60
2019-02-17T04:09:19.500Z,99.40
2019-02-17T04:11:49.856Z,99.10
2019-02-17T04:14:21.653Z,99.20
2019-02-17T04:16:51.993Z,98.90
2019-02-17T04:19:22.370Z,98.70
2019-02-17T04:21:52.705Z,98.60
2019-02-17T04:24:23.277Z,99.50
2019-02-17T04:26:53.617Z,99.60
2019-02-17T04:29:24.005Z,98.90
2019-02-17T04:31:54.345Z,99.00
2019-02-17T04:34:24.711Z,99.40
2019-02-17T04:36:55.086Z,98.90
2019-02-17T04:39:25.550Z,99.50
2019-02-17T04:41:55.894Z,99.10
2019-02-17T04:44:26.295Z,98.50
2019-02-17T04:46:56.628Z,98.70
2019-02-17T04:49:27.097Z,98.70
2019-02-17T04:51:57.440Z,99.20
2019-02-17T04:54:27.807Z,99.30
2019-02-17T04:56:58.170Z,98.50
2019-02-17T04:59:28.512Z,99.30
2019-02-17T05:01:58.882Z,99.30
2019-02-17T05:04:29.234Z,98.70
2019-02-17T05:06:59.785Z,99.10
2019-02-17T05:09:30.135Z,99.90
2019-02-17T05:12:00.497Z,99.70
2019-02-17T05:14:30.826Z,99.60
2019-02-17T05:17:01.199Z,99.80
2019-02-17T05:19:31.533Z,99.10
2019-02-17T05:22:03.173Z,99.50
2019-02-17T05:24:33.569Z,99.50
2019-02-17T05:27:03.902Z,99.30
2019-02-17T05:29:34.269Z,99.00
2019-02-17T05:32:04.613Z,98.60
2019-02-17T05:34:34.985Z,98.50
2019-02-17T05:37:05.329Z,99.20
2019-02-17T05:39:35.703Z,99.10
2019-02-17T05:42:06.038Z,99.00
2019-02-17T05:44:36.496Z,98.90
2019-02-17T05:47:06.841Z,99.70
2019-02-17T05:49:37.241Z,99.40
2019-02-17T05:52:07.588Z,99.50
2019-02-17T05:54:38.066Z,98.50
2019-02-17T05:57:08.405Z,99.20
2019-02-17T05:59:38.773Z,99.50
2019-02-17T06:02:09.141Z,99.90
2019-02-17T06:04:39.509Z,99.80
2019-02-17T06:07:09.878Z,99.20
2019-02-17T06:09:40.349Z,98.80
2019-02-17T06:12:10.698Z,99.20
2019-02-17T06:14:41.057Z,99.10
2019-02-17T06:17:11.398Z,99.30
2019-02-17T06:19:41.765Z,99.10
2019-02-17T06:22:12.125Z,99.20
2019-02-17T06:24:42.533Z,99.40
2019-02-17T06:27:12.903Z,99.70
2019-02-17T06:29:43.245Z,99.00
2019-02-17T06:32:13.634Z,98.70
2019-02-17T06:34:43.972Z,99.10
2019-02-17T06:37:14.694Z,99.70
2019-02-17T06:39:45.049Z,98.90
2019-02-17T06:42:15.410Z,99.50
2019-02-17T06:44:45.753Z,99.70
2019-02-17T06:47:21.329Z,99.00
2019-02-17T06:49:52.643Z,99.50
2019-02-17T06:52:23.093Z,99.40
2019-02-17T06:55:11.129Z,98.80
2019-02-17T06:57:42.186Z,99.70
2019-02-17T07:00:36.437Z,99.00
2019-02-17T07:03:06.800Z,99.30
2019-02-17T07:05:56.691Z,99.70
2019-02-17T07:08:26.924Z,99.30
2019-02-17T07:10:57.253Z,99.50
2019-02-17T07:13:27.617Z,98.60
2019-02-17T07:15:57.988Z,98.80
2019-02-17T07:18:28.329Z,98.60
2019-02-17T07:20:58.790Z,99.50
2019-02-17T07:23:29.153Z,98.70
2019-02-17T07:25:59.917Z,98.70
2019-02-17T07:28:30.265Z,98.30
2019-02-17T07:31:00.640Z,98.40
2019-02-17T07:33:32.034Z,99.00
2019-02-17T07:36:02.416Z,99.10
2019-02-17T07:38:32.749Z,99.10
2019-02-17T07:41:03.136Z,98.80
2019-02-17T07:43:33.809Z,99.20
2019-02-17T07:46:04.173Z,98.70
2019-02-17T07:48:34.500Z,99.10
2019-02-17T07:51:06.033Z,98.70
2019-02-17T07:53:36.701Z,98.60
2019-02-17T07:56:07.145Z,98.40
2019-02-17T07:58:37.490Z,98.50
2019-02-17T08:01:07.851Z,98.30
2019-02-17T08:03:38.204Z,98.10
2019-02-17T08:06:08.577Z,98.10
2019-02-17T08:08:38.935Z,98.20
2019-02-17T08:11:09.318Z,97.90
2019-02-17T08:13:39.681Z,97.60
2019-02-17T08:16:10.444Z,97.70
2019-02-17T08:18:40.798Z,97.70
2019-02-17T08:21:11.197Z,97.30
2019-02-17T08:23:41.841Z,96.50
2019-02-17T08:26:12.397Z,95.40
2019-02-17T08:28:43.034Z,94.50
2019-02-17T08:31:13.409Z,93.50
2019-02-17T08:33:43.769Z,92.30
2019-02-17T08:36:14.224Z,90.50
2019-02-17T08:38:45.680Z,89.50
2019-02-17T08:41:16.165Z,87.60
2019-02-17T08:43:46.582Z,84.40
2019-02-17T08:46:16.984Z,84.60
2019-02-17T08:48:47.320Z,83.60
2019-02-17T08:51:17.714Z,81.70
2019-02-17T08:53:48.093Z,83.90
2019-02-17T08:56:18.829Z,82.00
2019-02-17T08:58:49.545Z,81.70
2019-02-17T09:01:19.951Z,79.50
2019-02-17T09:03:50.311Z,79.20
2019-02-17T09:06:20.692Z,79.90
2019-02-17T09:08:51.026Z,81.20
2019-02-17T09:11:21.403Z,81.50
2019-02-17T09:13:51.746Z,78.70
2019-02-17T09:16:22.142Z,78.80
2019-02-17T09:18:52.509Z,76.70
2019-02-17T09:21:22.886Z,79.00
2019-02-17T09:23:53.225Z,79.70
2019-02-17T09:26:23.654Z,76.10
2019-02-17T09:28:55.082Z,77.30
2019-02-17T09:31:25.480Z,76.20
2019-02-17T09:33:55.833Z,73.50
2019-02-17T09:36:26.228Z,71.80
2019-02-17T09:38:56.575Z,72.30
2019-02-17T09:41:27.357Z,74.60
2019-02-17T09:43:57.772Z,74.30
2019-02-17T09:46:28.262Z,71.90
2019-02-17T09:48:58.599Z,72.50
2019-02-17T09:51:29.114Z,70.30
2019-02-17T09:54:03.987Z,68.40
2019-02-17T09:56:34.359Z,69.10
2019-02-17T09:59:04.686Z,67.00
2019-02-17T10:01:35.069Z,65.70
2019-02-17T10:04:05.417Z,65.40
2019-02-17T10:06:35.796Z,60.50
2019-02-17T10:09:06.948Z,61.70
2019-02-17T10:11:37.325Z,63.10
2019-02-17T10:14:07.669Z,64.10
2019-02-17T10:16:38.050Z,68.60
2019-02-17T10:19:08.401Z,68.00
2019-02-17T10:21:39.240Z,68.30
2019-02-17T10:24:09.592Z,67.90
2019-02-17T10:26:40.381Z,67.90
2019-02-17T10:29:11.117Z,67.90
2019-02-17T10:31:41.601Z,65.30
2019-02-17T10:34:11.957Z,69.00
2019-02-17T10:36:42.351Z,69.30
2019-02-17T10:39:12.719Z,68.90
2019-02-17T10:41:43.184Z,68.60
2019-02-17T10:44:13.815Z,68.70
2019-02-17T10:46:45.761Z,68.90
2019-02-17T10:49:16.101Z,66.30
2019-02-17T10:51:46.494Z,69.20
2019-02-17T10:54:16.837Z,69.60
2019-02-17T10:56:47.234Z,68.00
2019-02-17T10:59:17.569Z,68.10
2019-02-17T11:01:47.969Z,67.20
2019-02-17T11:04:18.337Z,67.90
2019-02-17T11:06:48.723Z,63.40
2019-02-17T11:09:20.973Z,69.50
2019-02-17T11:11:52.095Z,66.20
2019-02-17T11:14:22.456Z,69.40
2019-02-17T11:16:53.017Z,65.90
2019-02-17T11:19:23.401Z,67.50
2019-02-17T11:21:54.177Z,67.20
2019-02-17T11:24:24.680Z,66.90
2019-02-17T11:26:56.121Z,66.50
2019-02-17T11:29:26.489Z,67.90
2019-02-17T11:31:57.198Z,67.80
2019-02-17T11:34:27.545Z,65.50
2019-02-17T11:36:57.931Z,67.10
2019-02-17T11:39:28.257Z,70.20
2019-02-17T11:41:58.686Z,69.20
2019-02-17T11:44:29.006Z,67.90
2019-02-17T11:46:59.744Z,66.60
2019-02-17T11:49:30.429Z,65.90
2019-02-17T11:52:00.807Z,71.00
2019-02-17T11:54:31.163Z,68.80
2019-02-17T11:57:01.613Z,67.10
2019-02-17T11:59:31.969Z,66.20
2019-02-17T12:02:02.359Z,68.90
2019-02-17T12:04:32.697Z,64.20
2019-02-17T12:07:03.077Z,65.20
2019-02-17T12:09:34.494Z,64.60
2019-02-17T12:12:04.881Z,65.80
2019-02-17T12:14:36.298Z,69.10
2019-02-17T12:17:06.693Z,64.80
2019-02-17T12:19:37.037Z,66.10
2019-02-17T12:22:29.153Z,65.80
2019-02-17T12:25:06.526Z,64.60
2019-02-17T12:27:51.340Z,65.40
2019-02-17T12:30:23.607Z,65.00
2019-02-17T12:32:54.086Z,66.60
2019-02-17T12:35:24.431Z,66.60
2019-02-17T12:37:55.229Z,65.20
2019-02-17T12:40:25.977Z,62.40
2019-02-17T12:42:56.536Z,62.50
2019-02-17T12:45:27.050Z,65.00
2019-02-17T12:47:58.536Z,65.70
2019-02-17T12:50:28.992Z,65.00
2019-02-17T12:52:59.484Z,65.20
2019-02-17T12:55:30.156Z,65.00
2019-02-17T12:58:01.931Z,62.50
2019-02-17T13:00:32.273Z,65.50
2019-02-17T13:03:02.659Z,62.00
2019-02-17T13:05:33.069Z,62.00
2019-02-17T13:08:03.405Z,63.00
2019-02-17T13:10:35.688Z,65.30
2019-02-17T13:13:06.034Z,63.60
2019-02-17T13:15:36.402Z,63.70
2019-02-17T13:18:06.754Z,63.70
2019-02-17T13:20:37.137Z,64.00
2019-02-17T13:23:07.489Z,64.20
2019-02-17T13:25:38.396Z,62.80
2019-02-17T13:28:09.179Z,63.40
2019-02-17T13:30:39.581Z,62.10
2019-02-17T13:33:09.929Z,62.40
2019-02-17T13:35:40.397Z,64.10
2019-02-17T13:38:10.737Z,62.40
2019-02-17T13:40:41.133Z,63.50
2019-02-17T13:43:11.478Z,64.10
2019-02-17T13:45:44.684Z,63.50
2019-02-17T13:48:14.228Z,63.30
2019-02-17T13:50:44.629Z,64.00
2019-02-17T13:53:14.970Z,63.20
2019-02-17T13:55:45.385Z,63.60
2019-02-17T13:58:15.725Z,62.80
2019-02-17T14:00:46.512Z,63.70
2019-02-17T14:03:17.205Z,63.90
2019-02-17T14:05:47.629Z,63.00
2019-02-17T14:08:17.963Z,62.40
2019-02-17T14:10:48.789Z,63.70
2019-02-17T14:13:19.149Z,64.20
2019-02-17T14:15:49.520Z,63.50
2019-02-17T14:18:19.861Z,62.60
2019-02-17T14:20:50.237Z,63.40
2019-02-17T14:23:20.572Z,63.30
2019-02-17T14:25:51.044Z,63.00
2019-02-17T14:28:21.470Z,64.60
2019-02-17T14:30:53.140Z,63.70
2019-02-17T14:33:23.672Z,63.80
2019-02-17T14:35:54.049Z,65.20
2019-02-17T14:38:24.395Z,64.60
2019-02-17T14:40:54.757Z,63.80
2019-02-17T14:43:25.120Z,64.60
2019-02-17T14:45:55.465Z,65.60
2019-02-17T14:48:25.854Z,65.40
2019-02-17T14:50:56.201Z,65.50
2019-02-17T14:53:26.981Z,65.50
2019-02-17T14:55:57.321Z,65.40
2019-02-17T14:58:27.691Z,66.20
2019-02-17T15:00:58.045Z,66.30
2019-02-17T15:03:28.437Z,66.10
2019-02-17T15:05:58.794Z,66.30
2019-02-17T15:08:29.177Z,66.90
2019-02-17T15:10:59.526Z,67.10
2019-02-17T15:13:29.925Z,66.30
2019-02-17T15:16:00.277Z,66.80
2019-02-17T15:18:30.958Z,66.80
2019-02-17T15:21:01.289Z,67.00
2019-02-17T15:23:31.657Z,67.50
2019-02-17T15:26:02.038Z,67.90
2019-02-17T15:28:32.398Z,69.40
2019-02-17T15:31:02.917Z,69.10
2019-02-17T15:33:33.269Z,68.80
2019-02-17T15:36:03.666Z,68.80
2019-02-17T15:38:34.313Z,69.20
2019-02-17T15:41:05.047Z,69.60
2019-02-17T15:43:54.429Z,71.10
2019-02-17T15:46:24.809Z,70.90
2019-02-17T15:48:55.157Z,71.20
2019-02-17T15:51:25.562Z,72.50
2019-02-17T15:53:55.944Z,72.50
2019-02-17T15:56:26.297Z,72.10
2019-02-17T15:58:59.173Z,73.10
2019-02-17T16:01:29.521Z,73.60
2019-02-17T16:03:59.897Z,74.30
2019-02-17T16:06:30.235Z,75.10
2019-02-17T16:09:00.617Z,75.80
2019-02-17T16:11:31.021Z,76.50
2019-02-17T16:14:01.413Z,77.40
2019-02-17T16:16:31.753Z,78.10
2019-02-17T16:19:03.211Z,78.40
2019-02-17T16:21:33.557Z,79.10
2019-02-17T16:24:03.930Z,79.90
2019-02-17T16:26:35.261Z,80.80
2019-02-17T16:29:05.767Z,81.10
2019-02-17T16:31:36.239Z,81.50
2019-02-17T16:34:06.537Z,81.80
2019-02-17T16:36:36.877Z,82.80
2019-02-17T16:39:12.589Z,84.50
2019-02-17T16:41:42.927Z,85.20
2019-02-17T16:44:13.329Z,84.10
2019-02-17T16:46:43.669Z,84.00
2019-02-17T16:49:14.025Z,84.10
2019-02-17T16:51:44.368Z,85.00
2019-02-17T16:54:14.749Z,85.80
2019-02-17T16:56:45.143Z,85.90
2019-02-17T16:59:15.489Z,86.00
2019-02-17T17:01:45.831Z,86.70
2019-02-17T17:04:16.198Z,86.70
2019-02-17T17:06:46.544Z,87.40
2019-02-17T17:09:16.897Z,88.50
2019-02-17T17:11:47.245Z,89.00
2019-02-17T17:14:17.905Z,89.80
2019-02-17T17:16:48.617Z,88.70
2019-02-17T17:19:18.985Z,89.00
2019-02-17T17:21:49.436Z,88.60
2019-02-17T17:24:19.787Z,89.10
2019-02-17T17:26:50.145Z,90.00
2019-02-17T17:29:20.488Z,90.00
2019-02-17T17:31:50.890Z,90.10
2019-02-17T17:34:21.292Z,90.20
2019-02-17T17:36:51.962Z,90.20
2019-02-17T17:39:22.305Z,90.20
2019-02-17T17:41:52.736Z,90.30
2019-02-17T17:44:23.133Z,90.90
2019-02-17T17:46:53.472Z,90.80
2019-02-17T17:49:24.053Z,90.70
2019-02-17T17:51:54.389Z,91.10
2019-02-17T17:54:24.769Z,91.10
2019-02-17T17:56:55.137Z,91.10
2019-02-17T17:59:25.529Z,91.10
2019-02-17T18:01:55.869Z,91.30
2019-02-17T18:04:26.251Z,91.60
2019-02-17T18:06:57.105Z,91.30
2019-02-17T18:09:27.969Z,91.40
2019-02-17T18:11:58.294Z,91.70
2019-02-17T18:14:28.649Z,91.90
2019-02-17T18:16:59.029Z,92.10
2019-02-17T18:19:29.369Z,91.90
2019-02-17T18:21:59.720Z,92.20
2019-02-17T18:24:30.050Z,92.50
2019-02-17T18:27:00.505Z,92.40
2019-02-17T18:29:30.837Z,92.20
2019-02-17T18:32:01.693Z,92.50
2019-02-17T18:34:32.025Z,92.70
2019-02-17T18:37:03.552Z,92.30
2019-02-17T18:39:34.269Z,93.70
2019-02-17T18:42:04.753Z,94.00
2019-02-17T18:44:35.097Z,93.00
2019-02-17T18:47:05.469Z,92.90
2019-02-17T18:49:36.182Z,93.40
2019-02-17T18:52:06.633Z,93.20
2019-02-17T18:54:39.067Z,93.70
2019-02-17T18:57:09.462Z,93.60
2019-02-17T18:59:40.861Z,93.70
2019-02-17T19:02:11.196Z,95.00
2019-02-17T19:04:41.937Z,93.90
2019-02-17T19:07:12.421Z,93.90
2019-02-17T19:09:42.804Z,94.80
2019-02-17T19:12:13.145Z,94.20
2019-02-17T19:14:43.896Z,94.20
2019-02-17T19:17:14.233Z,94.10
2019-02-17T19:19:44.591Z,94.10
2019-02-17T19:22:14.989Z,95.30
2019-02-17T19:24:45.317Z,95.70
2019-02-17T19:27:15.682Z,96.00
2019-02-17T19:29:46.155Z,95.50
2019-02-17T19:32:16.640Z,95.90
2019-02-17T19:34:47.313Z,95.70
2019-02-17T19:37:18.061Z,95.60
2019-02-17T19:39:48.393Z,95.80
2019-02-17T19:42:18.761Z,96.00
2019-02-17T19:44:49.089Z,95.10
2019-02-17T19:47:19.461Z,95.80
2019-02-17T19:49:49.869Z,96.60
2019-02-17T19:52:20.241Z,95.00
2019-02-17T19:54:50.577Z,96.90
2019-02-17T19:57:20.942Z,97.40
2019-02-17T19:59:51.273Z,95.40
2019-02-17T20:02:31.905Z,95.40
2019-02-17T20:05:08.186Z,96.90
2019-02-17T20:07:39.537Z,96.80
2019-02-17T20:10:09.883Z,95.80
2019-02-17T20:12:40.266Z,96.70
2019-02-17T20:15:10.621Z,96.30
2019-02-17T20:17:45.200Z,97.10
2019-02-17T20:20:15.518Z,96.60
2019-02-17T20:22:45.882Z,97.00
2019-02-17T20:25:17.290Z,96.40
2019-02-17T20:27:47.661Z,97.30
2019-02-17T20:30:17.994Z,96.70
2019-02-17T20:32:48.374Z,97.20
2019-02-17T20:35:18.735Z,96.30
2019-02-17T20:37:49.066Z,97.30
2019-02-17T20:40:19.433Z,98.00
2019-02-17T20:42:49.777Z,97.80
2019-02-17T20:45:20.234Z,97.50
2019-02-17T20:47:50.626Z,96.10
2019-02-17T20:50:22.145Z,96.40
2019-02-17T20:52:52.481Z,96.90
2019-02-17T20:55:22.846Z,96.80
2019-02-17T20:57:53.318Z,97.80
2019-02-17T21:00:27.490Z,97.30
2019-02-17T21:02:57.910Z,97.60
2019-02-17T21:05:28.489Z,98.20
2019-02-17T21:07:58.890Z,98.20
2019-02-17T21:10:29.601Z,97.30
2019-02-17T21:12:59.935Z,97.00
2019-02-17T21:15:30.389Z,97.70
2019-02-17T21:18:00.773Z,97.80
2019-02-17T21:20:31.542Z,97.90
2019-02-17T21:23:02.269Z,98.20
2019-02-17T21:25:33.018Z,98.60
2019-02-17T21:28:03.348Z,97.90
2019-02-17T21:30:33.733Z,97.90
2019-02-17T21:33:04.104Z,97.60
2019-02-17T21:35:34.933Z,97.30
2019-02-17T21:38:06.189Z,98.30
2019-02-17T21:40:36.913Z,97.30
2019-02-17T21:43:07.261Z,98.50
2019-02-17T21:45:37.621Z,98.70
2019-02-17T21:48:07.990Z,98.10
2019-02-17T21:50:38.322Z,97.80
2019-02-17T21:53:13.420Z,98.30
2019-02-17T21:55:40.638Z,98.50
2019-02-17T21:58:11.332Z,98.80
2019-02-17T22:00:41.671Z,98.70
2019-02-17T22:03:12.109Z,98.40
2019-02-17T22:05:42.453Z,98.10
2019-02-17T22:08:12.924Z,99.30
2019-02-17T22:10:43.259Z,98.80
2019-02-17T22:13:13.693Z,98.80
2019-02-17T22:15:44.118Z,99.10
2019-02-17T22:18:14.563Z,99.20
2019-02-17T22:20:44.953Z,98.90
2019-02-17T22:23:15.337Z,98.00
2019-02-17T22:25:45.670Z,98.60
2019-02-17T22:28:16.055Z,98.30
2019-02-17T22:30:46.401Z,99.10
2019-02-17T22:33:16.745Z,98.00
2019-02-17T22:35:47.441Z,98.00
2019-02-17T22:38:18.857Z,98.40
2019-02-17T22:40:49.212Z,97.60
2019-02-17T22:43:19.562Z,98.40
2019-02-17T22:45:49.912Z,97.60
2019-02-17T22:48:20.253Z,98.50
2019-02-17T22:50:50.604Z,98.20
2019-02-17T22:53:21.001Z,99.00
2019-02-17T22:55:51.705Z,98.90
2019-02-17T22:58:22.061Z,98.30
2019-02-17T23:00:59.540Z,98.90
2019-02-17T23:03:32.194Z,98.90
2019-02-17T23:06:03.201Z,99.50
2019-02-17T23:08:33.953Z,98.40
2019-02-17T23:11:04.289Z,97.70
2019-02-17T23:13:34.689Z,98.50
2019-02-17T23:16:05.025Z,98.40
2019-02-17T23:18:35.493Z,98.80
2019-02-17T23:21:05.827Z,99.50
2019-02-17T23:23:36.193Z,98.90
2019-02-17T23:26:06.608Z,99.20
2019-02-17T23:28:36.961Z,99.80
2019-02-17T23:31:07.561Z,99.50
2019-02-17T23:33:37.896Z,99.60
2019-02-17T23:36:08.267Z,99.40
2019-02-17T23:38:38.592Z,99.10
2019-02-17T23:41:09.413Z,99.80
2019-02-17T23:43:39.762Z,99.50
2019-02-17T23:46:10.113Z,99.90
2019-02-17T23:48:40.450Z,99.90
2019-02-17T23:51:10.806Z,99.60
2019-02-17T23:53:41.170Z,99.90
2019-02-17T23:56:12.982Z,99.50
2019-02-17T23:58:43.314Z,99.90
